createdAt,value
2018-12-17T00:00:33.495Z,84.47
2018-12-17T00:03:00.937Z,84.00
2018-12-17T00:05:28.369Z,85.61
2018-12-17T00:07:55.834Z,85.91
2018-12-17T00:10:23.249Z,85.86
2018-12-17T00:12:50.731Z,85.69
2018-12-17T00:15:18.136Z,85.70
2018-12-17T00:17:45.569Z,86.02
2018-12-17T00:20:13.033Z,84.95
2018-12-17T00:22:40.497Z,84.64
2018-12-17T00:25:07.911Z,85.02
2018-12-17T00:27:35.348Z,85.83
2018-12-17T00:30:03.380Z,86.62
2018-12-17T00:32:30.911Z,85.75
2018-12-17T00:34:58.349Z,85.84
2018-12-17T00:37:25.848Z,85.32
2018-12-17T00:39:53.295Z,84.78
2018-12-17T00:42:20.735Z,85.67
2018-12-17T00:44:48.176Z,85.89
2018-12-17T00:47:15.619Z,85.30
2018-12-17T00:49:43.059Z,85.37
2018-12-17T00:52:10.479Z,85.16
2018-12-17T00:54:37.901Z,84.99
2018-12-17T00:57:05.349Z,84.44
2018-12-17T00:59:32.759Z,84.07
2018-12-17T01:02:00.194Z,83.72
2018-12-17T01:04:27.620Z,82.94
2018-12-17T01:06:55.058Z,82.57
2018-12-17T01:09:22.492Z,82.68
2018-12-17T01:11:49.927Z,82.22
2018-12-17T01:14:17.358Z,82.40
2018-12-17T01:16:44.806Z,81.97
2018-12-17T01:19:12.256Z,82.77
2018-12-17T01:21:39.714Z,82.11
2018-12-17T01:24:07.130Z,82.10
2018-12-17T01:26:34.559Z,81.75
2018-12-17T01:29:01.980Z,83.09
2018-12-17T01:31:29.496Z,82.28
2018-12-17T01:33:56.904Z,81.81
2018-12-17T01:36:24.335Z,81.61
2018-12-17T01:38:51.812Z,81.95
2018-12-17T01:41:19.233Z,81.52
2018-12-17T01:43:46.706Z,81.59
2018-12-17T01:46:14.169Z,81.32
2018-12-17T01:48:41.650Z,80.96
2018-12-17T01:51:09.147Z,80.75
2018-12-17T01:53:36.611Z,80.99
2018-12-17T01:56:04.062Z,80.92
2018-12-17T01:58:31.542Z,80.96
2018-12-17T02:00:58.980Z,80.62
2018-12-17T02:03:26.463Z,80.76
2018-12-17T02:05:53.866Z,80.37
2018-12-17T02:08:21.381Z,80.53
2018-12-17T02:10:48.782Z,80.36
2018-12-17T02:13:16.195Z,81.25
2018-12-17T02:15:43.659Z,80.81
2018-12-17T02:18:11.171Z,80.49
2018-12-17T02:20:38.611Z,80.61
2018-12-17T02:23:06.902Z,80.52
2018-12-17T02:25:34.407Z,80.41
2018-12-17T02:28:01.863Z,80.37
2018-12-17T02:30:29.397Z,80.28
2018-12-17T02:32:56.856Z,80.07
2018-12-17T02:35:25.230Z,80.11
2018-12-17T02:37:51.772Z,80.01
2018-12-17T02:40:19.196Z,79.92
2018-12-17T02:42:46.645Z,79.99
2018-12-17T02:45:14.112Z,80.00
2018-12-17T02:47:41.535Z,79.68
2018-12-17T02:50:08.970Z,79.99
2018-12-17T02:52:36.385Z,80.20
2018-12-17T02:55:03.883Z,80.30
2018-12-17T02:57:32.449Z,81.08
2018-12-17T02:59:58.784Z,82.49
2018-12-17T03:02:26.226Z,82.23
2018-12-17T03:04:53.651Z,81.60
2018-12-17T03:07:21.125Z,81.13
2018-12-17T03:09:48.556Z,81.03
2018-12-17T03:12:15.973Z,81.23
2018-12-17T03:14:43.402Z,81.26
2018-12-17T03:17:10.838Z,80.99
2018-12-17T03:19:38.300Z,80.88
2018-12-17T03:22:05.737Z,80.71
2018-12-17T03:24:33.151Z,80.85
2018-12-17T03:27:00.623Z,80.61
2018-12-17T03:29:28.070Z,81.11
2018-12-17T03:31:55.533Z,81.01
2018-12-17T03:34:22.971Z,81.11
2018-12-17T03:36:50.393Z,80.51
2018-12-17T03:39:17.841Z,80.44
2018-12-17T03:41:45.264Z,80.71
2018-12-17T03:44:12.703Z,80.61
2018-12-17T03:46:40.126Z,81.04
2018-12-17T03:49:07.567Z,81.54
2018-12-17T03:51:35.000Z,81.03
2018-12-17T03:54:02.439Z,80.84
2018-12-17T03:56:29.863Z,81.19
2018-12-17T03:58:59.392Z,81.09
2018-12-17T04:01:24.768Z,80.94
2018-12-17T04:03:52.227Z,81.08
2018-12-17T04:06:19.660Z,81.53
2018-12-17T04:08:47.109Z,81.86
2018-12-17T04:11:14.518Z,81.60
2018-12-17T04:13:41.940Z,81.26
2018-12-17T04:16:09.402Z,81.65
2018-12-17T04:18:36.849Z,81.47
2018-12-17T04:21:04.576Z,82.28
2018-12-17T04:23:32.015Z,81.75
2018-12-17T04:25:59.480Z,81.63
2018-12-17T04:28:26.952Z,81.53
2018-12-17T04:30:54.432Z,82.28
2018-12-17T04:33:21.963Z,83.13
2018-12-17T04:35:49.333Z,82.46
2018-12-17T04:38:17.681Z,82.28
2018-12-17T04:40:45.226Z,82.84
2018-12-17T04:43:12.671Z,82.28
2018-12-17T04:45:40.084Z,82.36
2018-12-17T04:48:07.537Z,82.13
2018-12-17T04:50:34.968Z,82.01
2018-12-17T04:53:02.407Z,82.02
2018-12-17T04:55:29.855Z,82.14
2018-12-17T04:57:57.295Z,82.60
2018-12-17T05:00:24.713Z,82.11
2018-12-17T05:02:52.208Z,83.33
2018-12-17T05:05:19.646Z,83.06
2018-12-17T05:07:47.064Z,82.99
2018-12-17T05:10:14.508Z,82.49
2018-12-17T05:12:41.951Z,81.99
2018-12-17T05:15:09.398Z,82.04
2018-12-17T05:17:36.862Z,81.71
2018-12-17T05:20:04.298Z,82.31
2018-12-17T05:22:32.702Z,82.05
2018-12-17T05:25:00.248Z,81.65
2018-12-17T05:27:27.651Z,81.52
2018-12-17T05:29:55.069Z,81.34
2018-12-17T05:32:22.509Z,81.28
2018-12-17T05:34:49.963Z,81.60
2018-12-17T05:37:17.391Z,81.68
2018-12-17T05:39:44.848Z,81.88
2018-12-17T05:42:12.274Z,81.68
2018-12-17T05:44:39.732Z,81.74
2018-12-17T05:47:07.161Z,81.88
2018-12-17T05:49:34.610Z,82.24
2018-12-17T05:52:02.051Z,82.73
2018-12-17T05:54:29.483Z,82.60
2018-12-17T05:56:56.889Z,82.69
2018-12-17T05:59:28.553Z,82.18
2018-12-17T06:01:51.770Z,82.86
2018-12-17T06:04:19.215Z,83.01
2018-12-17T06:06:46.646Z,83.07
2018-12-17T06:09:14.075Z,82.88
2018-12-17T06:11:41.511Z,83.49
2018-12-17T06:14:08.934Z,84.29
2018-12-17T06:16:36.338Z,84.05
2018-12-17T06:19:03.781Z,83.45
2018-12-17T06:21:31.202Z,83.60
2018-12-17T06:23:58.634Z,83.70
2018-12-17T06:26:26.077Z,84.62
2018-12-17T06:28:53.513Z,84.72
2018-12-17T06:31:20.936Z,84.21
2018-12-17T06:33:48.406Z,84.51
2018-12-17T06:36:15.811Z,83.99
2018-12-17T06:38:43.263Z,84.67
2018-12-17T06:41:10.733Z,87.01
2018-12-17T06:43:38.174Z,86.68
2018-12-17T06:46:05.636Z,85.91
2018-12-17T06:48:33.106Z,85.87
2018-12-17T06:51:00.557Z,86.21
2018-12-17T06:53:27.987Z,86.11
2018-12-17T06:55:55.408Z,86.26
2018-12-17T06:58:22.843Z,86.69
2018-12-17T07:00:50.278Z,86.99
2018-12-17T07:03:17.713Z,86.14
2018-12-17T07:05:45.162Z,85.34
2018-12-17T07:08:12.596Z,87.11
2018-12-17T07:10:40.014Z,86.92
2018-12-17T07:13:07.453Z,86.75
2018-12-17T07:15:34.893Z,85.88
2018-12-17T07:18:02.346Z,85.50
2018-12-17T07:20:29.766Z,86.31
2018-12-17T07:22:57.189Z,87.60
2018-12-17T07:25:24.613Z,86.87
2018-12-17T07:27:52.022Z,87.05
2018-12-17T07:30:19.462Z,86.60
2018-12-17T07:32:46.886Z,86.79
2018-12-17T07:35:14.333Z,86.54
2018-12-17T07:37:41.743Z,87.06
2018-12-17T07:40:09.185Z,87.32
2018-12-17T07:42:36.587Z,87.30
2018-12-17T07:45:05.259Z,87.06
2018-12-17T07:47:31.490Z,87.36
2018-12-17T07:49:58.911Z,87.58
2018-12-17T07:52:26.333Z,87.43
2018-12-17T07:54:54.170Z,86.89
2018-12-17T07:57:21.595Z,87.29
2018-12-17T07:59:49.000Z,87.88
2018-12-17T08:02:16.462Z,88.45
2018-12-17T08:04:43.909Z,88.03
2018-12-17T08:07:11.337Z,88.07
2018-12-17T08:09:38.802Z,88.60
2018-12-17T08:12:06.208Z,87.36
2018-12-17T08:14:33.702Z,87.15
2018-12-17T08:17:02.024Z,88.55
2018-12-17T08:19:29.701Z,87.35
2018-12-17T08:21:57.150Z,87.03
2018-12-17T08:24:24.596Z,87.70
2018-12-17T08:26:52.006Z,86.73
2018-12-17T08:29:19.423Z,86.74
2018-12-17T08:31:46.850Z,86.71
2018-12-17T08:34:14.268Z,87.31
2018-12-17T08:36:41.691Z,86.88
2018-12-17T08:39:09.371Z,87.96
2018-12-17T08:41:36.849Z,88.67
2018-12-17T08:44:04.275Z,87.69
2018-12-17T08:46:31.693Z,87.70
2018-12-17T08:48:59.133Z,88.39
2018-12-17T08:51:26.578Z,88.34
2018-12-17T08:53:54.037Z,88.72
2018-12-17T08:56:21.586Z,88.77
2018-12-17T08:58:49.026Z,88.23
2018-12-17T09:01:16.457Z,88.57
2018-12-17T09:03:43.976Z,88.48
2018-12-17T09:06:11.393Z,89.23
2018-12-17T09:08:38.836Z,88.96
2018-12-17T09:11:06.293Z,88.97
2018-12-17T09:13:33.730Z,90.33
2018-12-17T09:16:01.189Z,89.70
2018-12-17T09:18:28.649Z,89.52
2018-12-17T09:20:56.092Z,89.38
2018-12-17T09:23:23.532Z,88.42
2018-12-17T09:25:50.962Z,88.72
2018-12-17T09:28:18.384Z,88.58
2018-12-17T09:30:45.826Z,89.25
2018-12-17T09:33:13.267Z,89.31
2018-12-17T09:35:40.703Z,90.74
2018-12-17T09:38:08.130Z,91.29
2018-12-17T09:40:35.546Z,90.53
2018-12-17T09:43:02.989Z,89.79
2018-12-17T09:45:30.439Z,89.40
2018-12-17T09:47:57.866Z,89.65
2018-12-17T09:50:25.308Z,89.35
2018-12-17T09:52:52.761Z,89.23
2018-12-17T09:55:20.174Z,89.07
2018-12-17T09:57:47.610Z,88.89
2018-12-17T10:00:15.041Z,88.85
2018-12-17T10:02:42.493Z,89.15
2018-12-17T10:05:09.927Z,89.50
2018-12-17T10:07:37.379Z,89.09
2018-12-17T10:10:04.790Z,89.35
2018-12-17T10:12:32.258Z,89.76
2018-12-17T10:14:59.686Z,89.76
2018-12-17T10:17:27.125Z,89.76
2018-12-17T10:19:55.259Z,89.26
2018-12-17T10:22:22.688Z,89.46
2018-12-17T10:24:50.151Z,89.32
2018-12-17T10:27:17.583Z,88.62
2018-12-17T10:29:45.002Z,88.76
2018-12-17T10:32:12.469Z,89.81
2018-12-17T10:34:39.894Z,89.51
2018-12-17T10:37:07.338Z,90.21
2018-12-17T10:39:34.754Z,89.28
2018-12-17T10:42:02.201Z,89.67
2018-12-17T10:44:29.615Z,89.96
2018-12-17T10:46:57.099Z,90.20
2018-12-17T10:49:24.551Z,90.54
2018-12-17T10:51:51.998Z,89.73
2018-12-17T10:54:19.479Z,89.68
2018-12-17T10:56:46.902Z,89.89
2018-12-17T10:59:14.335Z,90.65
2018-12-17T11:01:47.277Z,90.87
2018-12-17T11:04:14.707Z,91.25
2018-12-17T11:06:42.137Z,91.27
2018-12-17T11:09:09.548Z,91.06
2018-12-17T11:11:36.975Z,91.10
2018-12-17T11:14:04.405Z,91.21
2018-12-17T11:16:31.857Z,91.26
2018-12-17T11:18:59.274Z,90.98
2018-12-17T11:21:26.703Z,91.41
2018-12-17T11:23:54.173Z,90.72
2018-12-17T11:26:21.630Z,91.72
2018-12-17T11:28:49.075Z,90.86
2018-12-17T11:31:16.510Z,90.87
2018-12-17T11:33:43.950Z,90.60
2018-12-17T11:36:11.391Z,90.79
2018-12-17T11:38:38.838Z,90.56
2018-12-17T11:41:06.309Z,90.73
2018-12-17T11:43:33.776Z,90.92
2018-12-17T11:46:01.208Z,90.57
2018-12-17T11:48:28.640Z,90.96
2018-12-17T11:50:56.047Z,90.96
2018-12-17T11:53:23.497Z,90.72
2018-12-17T11:55:50.927Z,90.80
2018-12-17T11:58:18.377Z,90.52
2018-12-17T12:00:45.787Z,90.13
2018-12-17T12:03:13.259Z,90.30
2018-12-17T12:05:40.716Z,90.42
2018-12-17T12:08:08.169Z,89.63
2018-12-17T12:10:35.621Z,90.17
2018-12-17T12:13:03.819Z,89.77
2018-12-17T12:15:31.268Z,89.20
2018-12-17T12:17:58.711Z,89.87
2018-12-17T12:20:26.162Z,89.35
2018-12-17T12:22:53.588Z,89.57
2018-12-17T12:25:21.019Z,89.73
2018-12-17T12:27:48.450Z,90.50
2018-12-17T12:30:15.886Z,91.21
2018-12-17T12:32:43.306Z,90.44
2018-12-17T12:35:10.766Z,89.97
2018-12-17T12:37:38.201Z,90.24
2018-12-17T12:40:05.653Z,91.47
2018-12-17T12:42:33.080Z,91.35
2018-12-17T12:45:00.525Z,91.80
2018-12-17T12:47:27.947Z,92.19
2018-12-17T12:49:55.410Z,92.05
2018-12-17T12:52:22.847Z,91.98
2018-12-17T12:54:50.281Z,91.69
2018-12-17T12:57:17.711Z,92.00
2018-12-17T12:59:45.154Z,91.58
2018-12-17T13:02:12.603Z,91.35
2018-12-17T13:04:40.049Z,91.88
2018-12-17T13:07:07.528Z,92.31
2018-12-17T13:09:34.963Z,92.18
2018-12-17T13:12:02.409Z,91.81
2018-12-17T13:14:29.827Z,91.07
2018-12-17T13:16:57.278Z,92.17
2018-12-17T13:19:24.765Z,92.27
2018-12-17T13:21:52.192Z,92.82
2018-12-17T13:24:19.641Z,92.47
2018-12-17T13:26:47.052Z,93.04
2018-12-17T13:29:14.505Z,92.70
2018-12-17T13:31:41.927Z,92.66
2018-12-17T13:34:09.337Z,92.63
2018-12-17T13:36:37.851Z,92.65
2018-12-17T13:39:05.369Z,92.77
2018-12-17T13:41:32.791Z,92.28
2018-12-17T13:44:00.223Z,91.96
2018-12-17T13:46:27.715Z,91.85
2018-12-17T13:48:55.207Z,91.91
2018-12-17T13:51:28.247Z,91.04
2018-12-17T13:53:55.682Z,91.59
2018-12-17T13:56:23.119Z,91.07
2018-12-17T13:58:50.808Z,91.22
2018-12-17T14:01:21.818Z,91.81
2018-12-17T14:03:45.818Z,91.56
2018-12-17T14:06:14.895Z,91.47
2018-12-17T14:08:40.736Z,91.66
2018-12-17T14:11:08.161Z,91.85
2018-12-17T14:13:35.611Z,91.91
2018-12-17T14:16:08.565Z,92.24
2018-12-17T14:18:41.520Z,92.50
2018-12-17T14:21:14.490Z,93.31
2018-12-17T14:23:41.906Z,92.61
2018-12-17T14:26:09.349Z,92.55
2018-12-17T14:28:36.793Z,92.17
2018-12-17T14:31:04.250Z,92.78
2018-12-17T14:33:31.701Z,92.40
2018-12-17T14:36:04.590Z,92.31
2018-12-17T14:38:32.061Z,91.74
2018-12-17T14:40:59.489Z,92.04
2018-12-17T14:43:26.935Z,92.46
2018-12-17T14:45:54.456Z,92.41
2018-12-17T14:48:21.874Z,92.01
2018-12-17T14:50:49.335Z,92.65
2018-12-17T14:53:16.783Z,92.58
2018-12-17T14:55:44.221Z,92.72
2018-12-17T14:58:11.624Z,92.74
2018-12-17T15:00:39.142Z,92.87
2018-12-17T15:03:06.495Z,93.13
2018-12-17T15:05:34.816Z,93.21
2018-12-17T15:08:02.417Z,92.79
2018-12-17T15:10:29.867Z,92.81
2018-12-17T15:12:57.286Z,92.77
2018-12-17T15:15:24.721Z,92.22
2018-12-17T15:17:52.170Z,92.49
2018-12-17T15:20:19.591Z,92.46
2018-12-17T15:22:47.049Z,92.63
2018-12-17T15:25:14.494Z,92.82
2018-12-17T15:27:42.186Z,92.57
2018-12-17T15:30:10.334Z,92.80
2018-12-17T15:32:38.299Z,92.58
2018-12-17T15:35:05.798Z,91.81
2018-12-17T15:37:33.215Z,91.68
2018-12-17T15:40:00.645Z,91.69
2018-12-17T15:42:28.087Z,91.89
2018-12-17T15:44:55.527Z,92.29
2018-12-17T15:47:22.967Z,92.36
2018-12-17T15:49:50.402Z,91.55
2018-12-17T15:52:17.891Z,92.08
2018-12-17T15:54:45.345Z,92.15
2018-12-17T15:57:12.825Z,91.50
2018-12-17T15:59:41.079Z,91.42
2018-12-17T16:02:08.510Z,91.05
2018-12-17T16:04:35.941Z,92.19
2018-12-17T16:07:04.277Z,92.03
2018-12-17T16:09:31.728Z,91.78
2018-12-17T16:11:59.181Z,91.83
2018-12-17T16:14:26.601Z,91.76
2018-12-17T16:16:54.018Z,91.82
2018-12-17T16:19:21.465Z,91.64
2018-12-17T16:21:48.914Z,91.66
2018-12-17T16:24:16.336Z,91.06
2018-12-17T16:26:43.780Z,91.58
2018-12-17T16:29:11.259Z,91.69
2018-12-17T16:31:38.676Z,91.21
2018-12-17T16:34:06.117Z,91.50
2018-12-17T16:36:33.576Z,91.29
2018-12-17T16:39:01.005Z,91.46
2018-12-17T16:41:28.449Z,92.01
2018-12-17T16:43:55.906Z,91.93
2018-12-17T16:46:23.940Z,91.88
2018-12-17T16:48:51.479Z,92.34
2018-12-17T16:51:18.916Z,91.52
2018-12-17T16:53:46.372Z,92.01
2018-12-17T16:56:13.817Z,91.98
2018-12-17T16:58:41.270Z,91.79
2018-12-17T17:01:08.724Z,91.80
2018-12-17T17:03:36.146Z,91.96
2018-12-17T17:06:03.574Z,91.55
2018-12-17T17:08:31.298Z,91.68
2018-12-17T17:10:58.832Z,91.22
2018-12-17T17:13:26.260Z,91.61
2018-12-17T17:15:53.691Z,91.62
2018-12-17T17:18:21.138Z,91.59
2018-12-17T17:20:48.609Z,91.45
2018-12-17T17:23:16.026Z,91.49
2018-12-17T17:25:43.450Z,91.21
2018-12-17T17:28:10.915Z,90.90
2018-12-17T17:30:38.724Z,91.50
2018-12-17T17:33:06.272Z,90.67
2018-12-17T17:35:33.717Z,90.33
2018-12-17T17:38:01.177Z,90.04
2018-12-17T17:40:28.612Z,90.60
2018-12-17T17:42:56.091Z,90.67
2018-12-17T17:45:23.515Z,90.06
2018-12-17T17:47:50.987Z,89.99
2018-12-17T17:50:18.423Z,89.35
2018-12-17T17:52:45.892Z,89.89
2018-12-17T17:55:13.327Z,89.87
2018-12-17T17:57:40.802Z,90.23
2018-12-17T18:00:08.234Z,89.10
2018-12-17T18:02:35.718Z,89.27
2018-12-17T18:05:04.206Z,89.64
2018-12-17T18:07:31.668Z,89.30
2018-12-17T18:09:59.115Z,90.04
2018-12-17T18:12:26.545Z,89.28
2018-12-17T18:14:54.021Z,88.73
2018-12-17T18:17:21.453Z,89.36
2018-12-17T18:19:48.921Z,89.29
2018-12-17T18:22:16.356Z,88.99
2018-12-17T18:24:43.817Z,89.75
2018-12-17T18:27:11.348Z,89.99
2018-12-17T18:29:38.818Z,90.82
2018-12-17T18:32:06.250Z,90.16
2018-12-17T18:34:33.724Z,89.80
2018-12-17T18:37:01.170Z,89.85
2018-12-17T18:39:28.633Z,88.87
2018-12-17T18:41:56.068Z,89.60
2018-12-17T18:44:23.535Z,90.02
2018-12-17T18:46:50.986Z,90.62
2018-12-17T18:49:18.437Z,89.37
2018-12-17T18:51:45.893Z,89.21
2018-12-17T18:54:13.320Z,90.28
2018-12-17T18:56:40.746Z,89.81
2018-12-17T18:59:08.197Z,89.76
2018-12-17T19:01:35.675Z,90.07
2018-12-17T19:04:03.099Z,89.86
2018-12-17T19:06:30.564Z,89.33
2018-12-17T19:08:58.018Z,89.58
2018-12-17T19:11:25.460Z,89.64
2018-12-17T19:13:52.907Z,89.00
2018-12-17T19:16:21.175Z,89.63
2018-12-17T19:18:48.640Z,89.74
2018-12-17T19:21:16.071Z,90.23
2018-12-17T19:23:43.515Z,89.46
2018-12-17T19:26:10.962Z,89.47
2018-12-17T19:28:38.416Z,89.60
2018-12-17T19:31:05.877Z,89.35
2018-12-17T19:33:33.312Z,89.51
2018-12-17T19:36:00.748Z,90.07
2018-12-17T19:38:28.209Z,89.66
2018-12-17T19:40:55.663Z,89.82
2018-12-17T19:43:23.086Z,89.31
2018-12-17T19:45:50.549Z,89.27
2018-12-17T19:48:17.974Z,89.17
2018-12-17T19:50:45.441Z,89.01
2018-12-17T19:53:12.883Z,89.56
2018-12-17T19:55:40.355Z,89.82
2018-12-17T19:58:07.804Z,89.57
2018-12-17T20:00:36.284Z,89.89
2018-12-17T20:03:04.302Z,89.49
2018-12-17T20:05:31.753Z,89.58
2018-12-17T20:07:59.188Z,89.58
2018-12-17T20:10:26.666Z,89.48
2018-12-17T20:12:54.118Z,89.55
2018-12-17T20:15:21.559Z,89.16
2018-12-17T20:17:49.070Z,89.36
2018-12-17T20:20:16.536Z,89.30
2018-12-17T20:22:44.033Z,89.32
2018-12-17T20:25:11.455Z,88.90
2018-12-17T20:27:38.920Z,88.50
2018-12-17T20:30:06.362Z,89.40
2018-12-17T20:32:33.845Z,89.34
2018-12-17T20:35:02.283Z,89.14
2018-12-17T20:37:33.866Z,88.82
2018-12-17T20:40:01.295Z,89.10
2018-12-17T20:42:28.746Z,89.56
2018-12-17T20:44:56.210Z,89.33
2018-12-17T20:47:23.668Z,89.22
2018-12-17T20:49:51.131Z,88.53
2018-12-17T20:52:18.552Z,88.05
2018-12-17T20:54:46.017Z,88.61
2018-12-17T20:57:13.499Z,88.68
2018-12-17T20:59:40.997Z,88.43
2018-12-17T21:02:08.432Z,88.87
2018-12-17T21:04:35.868Z,88.34
2018-12-17T21:07:04.351Z,88.10
2018-12-17T21:09:31.854Z,87.92
2018-12-17T21:11:59.320Z,88.39
2018-12-17T21:14:26.795Z,87.99
2018-12-17T21:16:54.257Z,88.26
2018-12-17T21:19:21.695Z,88.46
2018-12-17T21:21:49.144Z,88.60
2018-12-17T21:24:16.586Z,88.67
2018-12-17T21:26:44.097Z,88.49
2018-12-17T21:29:12.504Z,88.80
2018-12-17T21:31:40.045Z,88.95
2018-12-17T21:34:07.497Z,88.65
2018-12-17T21:36:34.980Z,88.45
2018-12-17T21:39:02.434Z,88.58
2018-12-17T21:41:29.877Z,89.03
2018-12-17T21:43:57.317Z,89.06
2018-12-17T21:46:24.798Z,88.79
2018-12-17T21:48:52.241Z,88.47
2018-12-17T21:51:19.720Z,88.83
2018-12-17T21:53:47.164Z,88.59
2018-12-17T21:56:14.927Z,89.11
2018-12-17T21:58:42.379Z,89.01
2018-12-17T22:01:09.814Z,88.80
2018-12-17T22:03:37.266Z,89.22
2018-12-17T22:06:04.770Z,89.57
2018-12-17T22:08:32.233Z,88.71
2018-12-17T22:10:59.963Z,89.02
2018-12-17T22:13:27.466Z,88.99
2018-12-17T22:15:54.918Z,88.64
2018-12-17T22:18:22.370Z,88.03
2018-12-17T22:20:49.823Z,87.96
2018-12-17T22:23:17.269Z,88.44
2018-12-17T22:25:44.739Z,88.93
2018-12-17T22:28:12.573Z,89.66
2018-12-17T22:30:40.034Z,88.65
2018-12-17T22:33:07.558Z,88.47
2018-12-17T22:35:35.017Z,88.52
2018-12-17T22:38:02.449Z,88.53
2018-12-17T22:40:29.922Z,88.27
2018-12-17T22:42:57.373Z,88.69
2018-12-17T22:45:24.840Z,88.41
2018-12-17T22:47:52.330Z,87.74
2018-12-17T22:50:19.797Z,88.05
2018-12-17T22:52:47.235Z,87.53
2018-12-17T22:55:14.796Z,87.48
2018-12-17T22:57:42.238Z,87.57
2018-12-17T23:00:09.685Z,87.34
2018-12-17T23:02:37.141Z,87.34
2018-12-17T23:05:04.585Z,87.55
2018-12-17T23:07:32.047Z,88.13
2018-12-17T23:10:11.244Z,87.83
2018-12-17T23:12:50.398Z,87.37
2018-12-17T23:15:29.651Z,87.71
2018-12-17T23:17:56.555Z,88.33
2018-12-17T23:20:23.981Z,88.27
2018-12-17T23:22:51.444Z,88.12
2018-12-17T23:25:18.884Z,87.06
2018-12-17T23:27:47.218Z,87.26
2018-12-17T23:30:14.661Z,87.56
2018-12-17T23:32:42.113Z,87.25
2018-12-17T23:35:09.531Z,87.78
2018-12-17T23:37:36.953Z,87.04
2018-12-17T23:40:04.399Z,86.95
2018-12-17T23:42:31.847Z,87.04
2018-12-17T23:44:59.311Z,86.13
2018-12-17T23:47:26.791Z,85.85
2018-12-17T23:49:54.250Z,85.61
2018-12-17T23:52:21.710Z,86.31
2018-12-17T23:54:49.205Z,86.72
2018-12-17T23:57:16.658Z,86.18
2018-12-17T23:59:44.078Z,86.59
